Metar z pełnej godziny Komunikat METAR ze strony awiacja.imgw.pl Metar G00 EPSC METAR EPSC 241900Z 12002KT CAVOK 16/10 Q1010 =